createdAt,value
2023-02-23T00:00:34.086Z,-0.28
2023-02-23T00:03:20.993Z,-0.27
2023-02-23T00:05:54.066Z,-0.26
2023-02-23T00:08:44.993Z,-0.24
2023-02-23T00:11:25.937Z,-0.26
2023-02-23T00:14:14.931Z,-0.28
2023-02-23T00:16:48.163Z,-0.28
2023-02-23T00:19:34.965Z,-0.26
2023-02-23T00:22:08.045Z,-0.26
2023-02-23T00:24:56.926Z,-0.28
2023-02-23T00:27:36.958Z,-0.26
2023-02-23T00:30:25.928Z,-0.27
2023-02-23T00:33:05.964Z,-0.26
2023-02-23T00:36:01.966Z,-0.27
2023-02-23T00:38:48.950Z,-0.29
2023-02-23T00:41:36.967Z,-0.31
2023-02-23T00:44:24.057Z,-0.31
2023-02-23T00:46:59.092Z,-0.34
2023-02-23T00:49:46.056Z,-0.35
2023-02-23T00:52:20.045Z,-0.35
2023-02-23T00:55:07.124Z,-0.37
2023-02-23T00:57:41.085Z,-0.37
2023-02-23T01:00:27.937Z,-0.38
2023-02-23T01:03:01.874Z,-0.39
2023-02-23T01:05:49.986Z,-0.42
2023-02-23T01:08:27.987Z,-0.44
2023-02-23T01:11:20.938Z,-0.50
2023-02-23T01:13:56.077Z,-0.54
2023-02-23T01:16:49.950Z,-0.57
2023-02-23T01:19:40.969Z,-0.63
2023-02-23T01:22:14.102Z,-0.65
2023-02-23T01:25:00.945Z,-0.66
2023-02-23T01:27:41.948Z,-0.69
2023-02-23T01:30:36.029Z,-0.76
2023-02-23T01:33:22.956Z,-0.78
2023-02-23T01:36:06.083Z,-0.79
2023-02-23T01:38:52.947Z,-0.82
2023-02-23T01:41:32.951Z,-0.86
2023-02-23T01:44:26.945Z,-0.87
2023-02-23T01:47:13.957Z,-0.92
2023-02-23T01:49:54.953Z,-0.94
2023-02-23T01:52:43.986Z,-0.96
2023-02-23T01:55:30.948Z,-0.96
2023-02-23T01:58:21.932Z,-1.00
2023-02-23T02:01:10.010Z,-1.03
2023-02-23T02:04:03.002Z,-1.05
2023-02-23T02:06:37.058Z,-1.07
2023-02-23T02:09:23.942Z,-1.09
2023-02-23T02:11:57.034Z,-1.10
2023-02-23T02:14:43.951Z,-1.11
2023-02-23T02:17:23.075Z,-1.11
2023-02-23T02:20:56.974Z,-1.12
2023-02-23T02:24:20.958Z,-1.13
2023-02-23T02:27:26.971Z,-1.16
2023-02-23T02:30:35.024Z,-1.18
2023-02-23T02:33:18.014Z,-1.17
2023-02-23T02:36:32.988Z,-1.21
2023-02-23T02:39:44.976Z,-1.24
2023-02-23T02:42:40.010Z,-1.30
2023-02-23T02:45:58.024Z,-1.31
2023-02-23T02:48:43.963Z,-1.33
2023-02-23T02:51:34.977Z,-1.32
2023-02-23T02:54:19.980Z,-1.34
2023-02-23T02:57:16.960Z,-1.36
2023-02-23T03:00:23.979Z,-1.37
2023-02-23T03:03:15.983Z,-1.39
2023-02-23T03:06:21.001Z,-1.43
2023-02-23T03:09:26.679Z,-1.48
2023-02-23T03:12:36.080Z,-1.52
2023-02-23T03:16:02.559Z,-1.54
2023-02-23T03:19:31.969Z,-1.56
2023-02-23T03:22:57.970Z,-1.58
2023-02-23T03:26:19.970Z,-1.57
2023-02-23T03:29:35.966Z,-1.54
2023-02-23T03:33:01.003Z,-1.58
2023-02-23T03:36:27.988Z,-1.59
2023-02-23T03:40:12.995Z,-1.61
2023-02-23T03:43:22.006Z,-1.62
2023-02-23T03:46:21.999Z,-1.64
2023-02-23T03:49:36.970Z,-1.67
2023-02-23T03:52:54.011Z,-1.70
2023-02-23T03:56:03.980Z,-1.67
2023-02-23T03:59:13.990Z,-1.72
2023-02-23T04:02:26.976Z,-1.73
2023-02-23T04:05:41.084Z,-1.76
2023-02-23T04:08:43.002Z,-1.80
2023-02-23T04:12:27.008Z,-1.83
2023-02-23T04:15:31.986Z,-1.86
2023-02-23T04:18:28.005Z,-1.85
2023-02-23T04:21:21.998Z,-1.86
2023-02-23T04:24:08.996Z,-1.86
2023-02-23T04:26:49.002Z,-1.88
2023-02-23T04:29:43.000Z,-1.91
2023-02-23T04:32:30.147Z,-1.89
2023-02-23T04:35:10.047Z,-1.89
2023-02-23T04:38:03.958Z,-1.90
2023-02-23T04:40:51.031Z,-1.90
2023-02-23T04:43:24.143Z,-1.92
2023-02-23T04:46:11.034Z,-1.90
2023-02-23T04:48:51.028Z,-1.90
2023-02-23T04:51:45.035Z,-1.91
2023-02-23T04:54:40.003Z,-1.90
2023-02-23T04:57:20.021Z,-1.92
2023-02-23T05:00:00.006Z,-1.92
2023-02-23T05:02:33.328Z,-1.94
2023-02-23T05:05:20.016Z,-1.90
2023-02-23T05:07:54.588Z,-1.89
2023-02-23T05:10:41.005Z,-1.92
2023-02-23T05:13:21.015Z,-1.93
2023-02-23T05:16:15.249Z,-1.96
2023-02-23T05:19:09.031Z,-1.98
2023-02-23T05:21:57.050Z,-2.00
2023-02-23T05:24:37.018Z,-2.02
2023-02-23T05:27:24.054Z,-2.03
2023-02-23T05:30:04.056Z,-2.03
2023-02-23T05:32:58.014Z,-2.06
2023-02-23T05:35:47.036Z,-2.07
2023-02-23T05:38:21.471Z,-2.07
2023-02-23T05:41:17.219Z,-2.08
2023-02-23T05:43:53.966Z,-2.10
2023-02-23T05:46:41.010Z,-2.13
2023-02-23T05:49:14.205Z,-2.11
2023-02-23T05:52:01.007Z,-2.11
2023-02-23T05:54:34.225Z,-2.06
2023-02-23T05:57:21.036Z,-2.03
2023-02-23T05:59:54.100Z,-2.01
2023-02-23T06:02:41.127Z,-1.99
2023-02-23T06:05:16.625Z,-1.93
2023-02-23T06:08:04.026Z,-1.91
2023-02-23T06:10:37.125Z,-1.90
2023-02-23T06:13:24.076Z,-1.82
2023-02-23T06:15:57.722Z,-1.77
2023-02-23T06:18:51.062Z,-1.71
2023-02-23T06:21:45.066Z,-1.63
2023-02-23T06:24:32.042Z,-1.57
2023-02-23T06:27:05.429Z,-1.53
2023-02-23T06:29:52.051Z,-1.47
2023-02-23T06:32:26.992Z,-1.43
2023-02-23T06:35:15.040Z,-1.37
2023-02-23T06:37:48.283Z,-1.35
2023-02-23T06:40:36.056Z,-1.30
2023-02-23T06:43:16.038Z,-1.24
2023-02-23T06:46:10.141Z,-1.17
2023-02-23T06:49:08.051Z,-1.11
2023-02-23T06:52:02.086Z,-1.03
2023-02-23T06:54:49.057Z,-0.99
2023-02-23T06:57:29.034Z,-0.93
2023-02-23T07:00:18.082Z,-0.84
2023-02-23T07:02:58.053Z,-0.78
2023-02-23T07:05:52.074Z,-0.71
2023-02-23T07:08:40.042Z,-0.65
2023-02-23T07:11:19.777Z,-0.56
2023-02-23T07:14:12.722Z,-0.48
2023-02-23T07:16:54.069Z,-0.40
2023-02-23T07:19:48.058Z,-0.34
2023-02-23T07:22:39.057Z,-0.27
2023-02-23T07:25:21.072Z,-0.21
2023-02-23T07:28:15.050Z,-0.10
2023-02-23T07:31:04.099Z,-0.01
2023-02-23T07:33:37.178Z,0.06
2023-02-23T07:36:24.056Z,0.13
2023-02-23T07:39:04.078Z,0.20
2023-02-23T07:41:51.090Z,0.25
2023-02-23T07:44:31.080Z,0.32
2023-02-23T07:47:25.071Z,0.39
2023-02-23T07:50:16.051Z,0.46
2023-02-23T07:52:57.081Z,0.49
2023-02-23T07:55:51.055Z,0.56
2023-02-23T07:58:38.076Z,0.64
2023-02-23T08:01:11.194Z,0.74
2023-02-23T08:03:58.139Z,0.84
2023-02-23T08:06:38.081Z,0.90
2023-02-23T08:09:32.080Z,0.98
2023-02-23T08:12:19.086Z,1.07
2023-02-23T08:14:53.680Z,1.15
2023-02-23T08:17:47.080Z,1.22
2023-02-23T08:20:41.090Z,1.29
2023-02-23T08:23:28.101Z,1.35
2023-02-23T08:26:01.167Z,1.42
2023-02-23T08:28:52.078Z,1.50
2023-02-23T08:31:27.638Z,1.58
2023-02-23T08:34:14.083Z,1.66
2023-02-23T08:36:54.116Z,1.75
2023-02-23T08:39:48.278Z,1.83
2023-02-23T08:42:35.063Z,1.90
2023-02-23T08:45:08.716Z,2.00
2023-02-23T08:47:58.113Z,2.12
2023-02-23T08:50:38.103Z,2.25
2023-02-23T08:53:32.082Z,2.39
2023-02-23T08:56:26.146Z,2.54
2023-02-23T08:59:20.097Z,2.70
2023-02-23T09:02:15.101Z,2.88
2023-02-23T09:05:02.122Z,3.08
2023-02-23T09:07:35.427Z,3.29
2023-02-23T09:10:26.097Z,3.50
2023-02-23T09:13:06.101Z,3.76
2023-02-23T09:16:01.195Z,4.04
2023-02-23T09:18:56.097Z,4.30
2023-02-23T09:21:43.106Z,4.51
2023-02-23T09:24:18.637Z,4.72
2023-02-23T09:27:05.101Z,4.94
2023-02-23T09:29:41.545Z,5.09
2023-02-23T09:32:28.181Z,5.26
2023-02-23T09:35:01.212Z,5.35
2023-02-23T09:37:48.099Z,5.46
2023-02-23T09:40:24.202Z,5.52
2023-02-23T09:43:41.140Z,5.56
2023-02-23T09:46:40.105Z,5.57
2023-02-23T09:49:38.097Z,5.58
2023-02-23T09:52:29.122Z,5.59
2023-02-23T09:55:02.225Z,5.55
2023-02-23T09:57:55.114Z,5.51
2023-02-23T10:00:37.095Z,5.52
2023-02-23T10:03:28.152Z,5.49
2023-02-23T10:06:14.133Z,5.49
2023-02-23T10:09:57.117Z,5.41
2023-02-23T10:12:55.173Z,5.42
2023-02-23T10:15:59.176Z,5.42
2023-02-23T10:18:57.203Z,5.45
2023-02-23T10:21:49.135Z,5.50
2023-02-23T10:24:28.723Z,5.49
2023-02-23T10:27:24.144Z,5.54
2023-02-23T10:30:13.117Z,5.57
2023-02-23T10:33:20.132Z,5.58
2023-02-23T10:36:58.144Z,5.56
2023-02-23T10:39:56.143Z,5.54
2023-02-23T10:42:43.129Z,5.56
2023-02-23T10:45:32.137Z,5.60
2023-02-23T10:48:39.185Z,5.62
2023-02-23T10:51:14.239Z,5.62
2023-02-23T10:54:07.924Z,5.63
2023-02-23T10:56:50.232Z,5.62
2023-02-23T10:59:37.171Z,5.63
2023-02-23T11:02:30.981Z,5.64
2023-02-23T11:05:52.130Z,5.66
2023-02-23T11:08:30.314Z,5.70
2023-02-23T11:11:23.325Z,5.74
2023-02-23T11:13:57.273Z,5.78
2023-02-23T11:16:47.144Z,5.83
2023-02-23T11:19:37.128Z,5.86
2023-02-23T11:22:33.130Z,5.91
2023-02-23T11:25:11.572Z,5.94
2023-02-23T11:28:00.169Z,6.01
2023-02-23T11:30:44.695Z,6.24
2023-02-23T11:33:38.158Z,6.30
2023-02-23T11:36:22.241Z,6.42
2023-02-23T11:39:21.165Z,6.63
2023-02-23T11:42:22.147Z,6.62
2023-02-23T11:45:18.169Z,6.58
2023-02-23T11:48:12.149Z,6.54
2023-02-23T11:50:45.240Z,6.54
2023-02-23T11:53:43.164Z,6.53
2023-02-23T11:56:16.243Z,6.52
2023-02-23T11:59:10.166Z,6.50
2023-02-23T12:01:59.193Z,6.54
2023-02-23T12:04:54.218Z,6.53
2023-02-23T12:08:20.168Z,6.54
2023-02-23T12:11:08.185Z,6.57
2023-02-23T12:14:09.171Z,6.59
2023-02-23T12:17:07.153Z,6.57
2023-02-23T12:19:46.524Z,6.61
2023-02-23T12:22:43.158Z,6.64
2023-02-23T12:25:34.214Z,6.66
2023-02-23T12:28:50.179Z,6.68
2023-02-23T12:31:53.287Z,6.70
2023-02-23T12:34:34.612Z,6.72
2023-02-23T12:37:31.253Z,6.73
2023-02-23T12:40:24.170Z,6.74
2023-02-23T12:43:28.174Z,6.79
2023-02-23T12:46:27.253Z,6.79
2023-02-23T12:49:17.081Z,6.82
2023-02-23T12:52:21.377Z,6.84
2023-02-23T12:55:02.186Z,6.83
2023-02-23T12:58:36.274Z,6.84
2023-02-23T13:01:55.184Z,6.87
2023-02-23T13:05:10.184Z,6.88
2023-02-23T13:08:21.249Z,6.90
2023-02-23T13:11:27.196Z,6.91
2023-02-23T13:14:22.312Z,6.89
2023-02-23T13:17:36.267Z,6.90
2023-02-23T13:20:25.531Z,6.90
2023-02-23T13:23:39.235Z,6.93
2023-02-23T13:26:36.697Z,6.96
2023-02-23T13:29:33.216Z,6.99
2023-02-23T13:32:17.726Z,7.01
2023-02-23T13:35:09.207Z,7.02
2023-02-23T13:37:56.249Z,7.04
2023-02-23T13:41:00.230Z,7.03
2023-02-23T13:44:05.233Z,7.05
2023-02-23T13:46:52.498Z,7.06
2023-02-23T13:49:49.232Z,7.05
2023-02-23T13:52:51.209Z,7.02
2023-02-23T13:55:58.234Z,7.00
2023-02-23T13:58:54.221Z,6.94
2023-02-23T14:01:32.504Z,6.89
2023-02-23T14:04:22.253Z,6.87
2023-02-23T14:07:11.352Z,6.83
2023-02-23T14:10:13.229Z,6.77
2023-02-23T14:12:49.387Z,6.72
2023-02-23T14:15:42.251Z,6.68
2023-02-23T14:18:28.678Z,6.64
2023-02-23T14:21:38.258Z,6.60
2023-02-23T14:24:27.455Z,6.54
2023-02-23T14:27:34.531Z,6.52
2023-02-23T14:30:25.276Z,6.49
2023-02-23T14:34:03.236Z,6.42
2023-02-23T14:36:51.269Z,6.35
2023-02-23T14:39:42.239Z,6.32
2023-02-23T14:42:33.250Z,6.26
2023-02-23T14:45:14.396Z,6.24
2023-02-23T14:48:09.266Z,6.21
2023-02-23T14:50:51.246Z,6.18
2023-02-23T14:53:39.240Z,6.15
2023-02-23T14:56:43.463Z,6.11
2023-02-23T14:59:42.241Z,6.09
2023-02-23T15:02:24.561Z,6.05
2023-02-23T15:05:33.253Z,6.02
2023-02-23T15:08:15.371Z,5.97
2023-02-23T15:11:17.581Z,5.92
2023-02-23T15:13:56.679Z,5.86
2023-02-23T15:16:44.255Z,5.78
2023-02-23T15:19:25.431Z,5.74
2023-02-23T15:22:13.256Z,5.69
2023-02-23T15:25:02.263Z,5.64
2023-02-23T15:27:52.268Z,5.59
2023-02-23T15:30:42.272Z,5.54
2023-02-23T15:33:37.265Z,5.49
2023-02-23T15:36:41.285Z,5.41
2023-02-23T15:39:21.350Z,5.36
2023-02-23T15:42:09.260Z,5.29
2023-02-23T15:44:45.181Z,5.21
2023-02-23T15:47:39.267Z,5.12
2023-02-23T15:50:16.610Z,5.07
2023-02-23T15:53:10.264Z,4.99
2023-02-23T15:55:44.467Z,4.92
2023-02-23T15:58:41.809Z,4.83
2023-02-23T16:01:39.268Z,4.74
2023-02-23T16:04:34.298Z,4.66
2023-02-23T16:07:30.271Z,4.58
2023-02-23T16:10:31.343Z,4.46
2023-02-23T16:13:22.295Z,4.38
2023-02-23T16:15:57.433Z,4.30
2023-02-23T16:18:56.285Z,4.23
2023-02-23T16:21:51.275Z,4.15
2023-02-23T16:24:45.267Z,4.07
2023-02-23T16:27:34.306Z,4.01
2023-02-23T16:30:24.129Z,3.95
2023-02-23T16:33:30.335Z,3.89
2023-02-23T16:36:22.680Z,3.83
2023-02-23T16:39:06.288Z,3.76
2023-02-23T16:41:54.277Z,3.72
2023-02-23T16:44:34.235Z,3.67
2023-02-23T16:47:30.293Z,3.62
2023-02-23T16:50:18.937Z,3.57
2023-02-23T16:53:07.298Z,3.50
2023-02-23T16:55:43.456Z,3.47
2023-02-23T16:58:32.316Z,3.42
2023-02-23T17:01:05.474Z,3.38
2023-02-23T17:03:53.473Z,3.33
2023-02-23T17:06:35.312Z,3.27
2023-02-23T17:09:29.293Z,3.21
2023-02-23T17:12:18.328Z,3.14
2023-02-23T17:14:51.454Z,3.11
2023-02-23T17:17:38.315Z,3.07
2023-02-23T17:20:15.729Z,3.03
2023-02-23T17:23:05.310Z,2.99
2023-02-23T17:25:38.446Z,2.95
2023-02-23T17:28:25.370Z,2.94
2023-02-23T17:30:58.545Z,2.92
2023-02-23T17:33:47.384Z,2.89
2023-02-23T17:36:24.017Z,2.87
2023-02-23T17:39:11.311Z,2.84
2023-02-23T17:41:51.371Z,2.82
2023-02-23T17:44:38.365Z,2.83
2023-02-23T17:47:11.463Z,2.81
2023-02-23T17:49:58.370Z,2.82
2023-02-23T17:52:31.467Z,2.78
2023-02-23T17:55:18.284Z,2.75
2023-02-23T17:57:58.311Z,2.75
2023-02-23T18:00:46.474Z,2.71
2023-02-23T18:03:19.472Z,2.69
2023-02-23T18:06:15.366Z,2.67
2023-02-23T18:08:49.457Z,2.64
2023-02-23T18:11:36.336Z,2.64
2023-02-23T18:14:13.787Z,2.61
2023-02-23T18:17:00.331Z,2.58
2023-02-23T18:19:40.326Z,2.57
2023-02-23T18:22:34.333Z,2.56
2023-02-23T18:25:42.336Z,2.53
2023-02-23T18:28:36.296Z,2.51
2023-02-23T18:31:26.803Z,2.50
2023-02-23T18:34:08.331Z,2.47
2023-02-23T18:37:02.371Z,2.45
2023-02-23T18:39:56.333Z,2.45
2023-02-23T18:42:43.370Z,2.45
2023-02-23T18:45:16.471Z,2.43
2023-02-23T18:48:03.371Z,2.43
2023-02-23T18:50:43.375Z,2.42
2023-02-23T18:53:30.333Z,2.42
2023-02-23T18:56:03.468Z,2.40
2023-02-23T18:58:51.370Z,2.36
2023-02-23T19:01:28.576Z,2.35
2023-02-23T19:04:15.376Z,2.33
2023-02-23T19:06:50.503Z,2.30
2023-02-23T19:09:37.364Z,2.29
2023-02-23T19:12:18.341Z,2.28
2023-02-23T19:15:05.367Z,2.26
2023-02-23T19:17:46.513Z,2.25
2023-02-23T19:20:42.411Z,2.27
2023-02-23T19:23:29.368Z,2.26
2023-02-23T19:26:03.407Z,2.25
2023-02-23T19:28:50.389Z,2.22
2023-02-23T19:31:26.572Z,2.19
2023-02-23T19:34:15.389Z,2.13
2023-02-23T19:36:55.369Z,2.09
2023-02-23T19:39:51.375Z,2.04
2023-02-23T19:42:43.370Z,1.99
2023-02-23T19:45:23.401Z,1.95
2023-02-23T19:48:17.371Z,1.92
2023-02-23T19:51:04.617Z,1.94
2023-02-23T19:53:45.391Z,1.90
2023-02-23T19:56:34.408Z,1.87
2023-02-23T19:59:15.404Z,1.88
2023-02-23T20:02:09.401Z,1.88
2023-02-23T20:05:04.403Z,1.85
2023-02-23T20:07:51.386Z,1.83
2023-02-23T20:10:29.241Z,1.80
2023-02-23T20:13:17.369Z,1.76
2023-02-23T20:15:57.374Z,1.72
2023-02-23T20:18:52.392Z,1.69
2023-02-23T20:21:48.489Z,1.65
2023-02-23T20:24:35.402Z,1.64
2023-02-23T20:27:08.505Z,1.65
2023-02-23T20:29:57.423Z,1.66
2023-02-23T20:32:30.566Z,1.64
2023-02-23T20:35:20.401Z,1.63
2023-02-23T20:37:53.641Z,1.62
2023-02-23T20:40:41.494Z,1.59
2023-02-23T20:43:14.494Z,1.57
2023-02-23T20:46:01.445Z,1.55
2023-02-23T20:48:45.378Z,1.57
2023-02-23T20:51:32.523Z,1.56
2023-02-23T20:54:12.693Z,1.53
2023-02-23T20:57:13.654Z,1.51
2023-02-23T21:00:00.411Z,1.50
2023-02-23T21:02:41.375Z,1.47
2023-02-23T21:05:33.425Z,1.46
2023-02-23T21:08:08.555Z,1.45
2023-02-23T21:10:57.379Z,1.42
2023-02-23T21:13:30.560Z,1.39
2023-02-23T21:16:22.424Z,1.36
2023-02-23T21:19:04.135Z,1.32
2023-02-23T21:21:54.413Z,1.28
2023-02-23T21:24:27.591Z,1.27
2023-02-23T21:27:19.485Z,1.25
2023-02-23T21:30:02.415Z,1.21
2023-02-23T21:32:56.563Z,1.17
2023-02-23T21:35:47.385Z,1.15
2023-02-23T21:38:33.377Z,1.12
2023-02-23T21:41:28.419Z,1.09
2023-02-23T21:44:15.419Z,1.05
2023-02-23T21:46:55.400Z,1.03
2023-02-23T21:49:49.429Z,0.99
2023-02-23T21:52:37.403Z,0.97
2023-02-23T21:55:19.575Z,0.93
2023-02-23T21:58:07.411Z,0.91
2023-02-23T22:00:49.080Z,0.87
2023-02-23T22:03:36.453Z,0.85
2023-02-23T22:06:09.697Z,0.81
2023-02-23T22:08:57.406Z,0.79
2023-02-23T22:11:36.450Z,0.77
2023-02-23T22:14:23.401Z,0.76
2023-02-23T22:17:04.455Z,0.76
2023-02-23T22:19:58.418Z,0.74
2023-02-23T22:22:45.412Z,0.74
2023-02-23T22:25:18.607Z,0.73
2023-02-23T22:28:05.438Z,0.70
2023-02-23T22:30:38.550Z,0.69
2023-02-23T22:33:27.408Z,0.69
2023-02-23T22:36:00.558Z,0.67
2023-02-23T22:38:48.444Z,0.66
2023-02-23T22:41:22.199Z,0.63
2023-02-23T22:44:09.413Z,0.60
2023-02-23T22:46:42.593Z,0.60
2023-02-23T22:49:29.471Z,0.61
2023-02-23T22:52:02.707Z,0.61
2023-02-23T22:54:52.453Z,0.59
2023-02-23T22:57:25.576Z,0.56
2023-02-23T23:00:15.410Z,0.54
2023-02-23T23:02:48.555Z,0.54
2023-02-23T23:05:37.291Z,0.55
2023-02-23T23:08:10.525Z,0.57
2023-02-23T23:10:59.317Z,0.55
2023-02-23T23:13:32.547Z,0.57
2023-02-23T23:16:31.716Z,0.61
2023-02-23T23:19:18.460Z,0.61
2023-02-23T23:22:07.474Z,0.60
2023-02-23T23:24:45.946Z,0.58
2023-02-23T23:27:32.434Z,0.58
2023-02-23T23:30:12.447Z,0.58
2023-02-23T23:32:59.589Z,0.58
2023-02-23T23:35:34.334Z,0.57
2023-02-23T23:38:21.470Z,0.58
2023-02-23T23:40:54.540Z,0.58
2023-02-23T23:43:43.471Z,0.54
2023-02-23T23:46:29.482Z,0.57
2023-02-23T23:49:19.475Z,0.55
2023-02-23T23:51:56.954Z,0.54
2023-02-23T23:54:48.478Z,0.54
2023-02-23T23:57:21.562Z,0.52
